Almirante Gago Coutinho — CTHA — position and weather

sailwx.info

Track history (hours):
 
Tides and Currents Weather Stations Pressure Air Temp Water Temp Dewpoint Dewpoint Depression Visibility Wind Speed Wind Dir Waves Ship Positions

Oceanographic research ship Almirante Gago Coutinho (Portugal)

Detailed information on ship capabilities available from University of Delaware's Ocean Information Center.

Last reported at 2019-Oct-14 10:01 UTC. Time now 2019-Oct-14 10:21 UTC.
Position N 37°07' W 008°32'.

Length 69 m; draft 5 m.

Type: Military. MMSI: 263145000.

Date/timePositionNaut miles runAvg speedWind from/ knotsBaromVisibWave heightAir tempDewpointWater temp
2019-Oct-14 10:01N 37°07' W 008°32'0 0.0
2019-Oct-14 09:31N 37°07' W 008°32'0 0.0
2019-Oct-14 09:01N 37°07' W 008°32'0 0.0
2019-Oct-14 08:30N 37°07' W 008°32'0 0.0
2019-Oct-14 08:00N 37°07' W 008°32'0 0.0
2019-Oct-14 07:31N 37°07' W 008°32'2 3.0
2019-Oct-14 07:00N 37°06' W 008°32'3 6.5
2019-Oct-14 06:31N 37°03' W 008°33'1 2.3
2019-Oct-14 06:00N 37°02' W 008°33'1 2.5
2019-Oct-14 05:31N 37°00' W 008°33'1 1.6
2019-Oct-14 05:00N 37°00' W 008°34'1 1.5
2019-Oct-14 04:30N 37°00' W 008°35'2 3.5
2019-Oct-14 04:00N 37°00' W 008°33'2 3.7
2019-Oct-14 03:29N 37°02' W 008°33'1 2.5
2019-Oct-14 03:01N 37°03' W 008°34'2 4.1
2019-Oct-14 02:30N 37°02' W 008°36'2 3.9
2019-Oct-14 02:00N 37°02' W 008°38'2 3.8
2019-Oct-14 01:30N 37°01' W 008°40'2 3.7
2019-Oct-14 01:00N 37°00' W 008°43'2 3.9
2019-Oct-14 00:31N 36°60' W 008°45'2 4.2
2019-Oct-14 00:01N 36°59' W 008°47'2 3.8
2019-Oct-13 23:30N 36°58' W 008°50'2 3.7
2019-Oct-13 23:00N 36°57' W 008°52'2 3.7
2019-Oct-13 22:30N 36°57' W 008°54'2 3.7
2019-Oct-13 22:01N 36°56' W 008°56'1 2.0
2019-Oct-13 21:30N 36°56' W 008°57'3 5.9
2019-Oct-13 20:58N 36°52' W 008°57'1 2.9
2019-Oct-13 20:29N 36°51' W 008°57'1 2.1
2019-Oct-13 19:56N 36°50' W 008°58'1 2.6
2019-Oct-13 19:21N 36°51' W 008°60'5 5.3
2019-Oct-13 18:22N 36°56' W 008°60'3 4.3
2019-Oct-13 17:40N 36°59' W 008°60'0 0.2
2019-Oct-13 17:30N 36°59' W 008°60'2 0.5
2019-Oct-13 13:58N 37°01' W 009°01'1 1.9
2019-Oct-13 13:21N 36°59' W 009°02'3 8.6
2019-Oct-13 13:00N 36°59' W 008°58'3 5.3
2019-Oct-13 12:23N 37°01' W 008°54'0 1.0
2019-Oct-13 12:00N 37°00' W 008°54'2 4.5
2019-Oct-13 11:30N 36°58' W 008°54'3 5.5
2019-Oct-13 10:57N 36°55' W 008°54'2 4.7
2019-Oct-13 10:30N 36°53' W 008°54'1 2.4
2019-Oct-13 09:59N 36°52' W 008°53'2 3.0
2019-Oct-13 09:24N 36°54' W 008°51'2 5.8
2019-Oct-13 09:00N 36°56' W 008°51'2 3.6
2019-Oct-13 08:28N 36°58' W 008°51'1 2.8
2019-Oct-13 08:00N 36°59' W 008°51'3 5.1
2019-Oct-13 07:30N 37°02' W 008°51'2 4.9
2019-Oct-13 07:00N 37°03' W 008°48'2 3.9
2019-Oct-13 06:30N 37°01' W 008°48'2 4.2
2019-Oct-13 06:00N 36°59' W 008°48'2 4.0
2019-Oct-13 05:30N 36°57' W 008°48'3 6.0
2019-Oct-13 05:01N 36°54' W 008°48'2 4.7
2019-Oct-13 04:31N 36°52' W 008°48'2 3.3
2019-Oct-13 04:01N 36°52' W 008°46'1 1.7
2019-Oct-13 03:31N 36°52' W 008°45'2 4.2
2019-Oct-13 03:00N 36°54' W 008°45'3 6.0
2019-Oct-13 02:30N 36°57' W 008°45'3 5.3
2019-Oct-13 02:00N 36°60' W 008°45'2 3.8
2019-Oct-13 01:30N 37°02' W 008°45'2 3.5
2019-Oct-13 01:00N 37°03' W 008°44'2 4.0
2019-Oct-13 00:30N 37°02' W 008°42'2 4.9
2019-Oct-13 00:00N 36°60' W 008°42'2 5.0
2019-Oct-12 23:30N 36°57' W 008°42'3 5.9
2019-Oct-12 23:00N 36°54' W 008°42'3 5.9
2019-Oct-12 22:30N 36°51' W 008°42'2 4.0
2019-Oct-12 22:00N 36°52' W 008°40'1 2.3
2019-Oct-12 21:30N 36°52' W 008°38'2 3.5
2019-Oct-12 21:00N 36°52' W 008°36'1 2.0
2019-Oct-12 20:30N 36°51' W 008°35'2 4.3
2019-Oct-12 20:00N 36°52' W 008°33'0 0.3
2019-Oct-12 19:30N 36°52' W 008°33'2 3.2
2019-Oct-12 19:00N 36°54' W 008°33'2 3.1
2019-Oct-12 18:30N 36°55' W 008°33'2 4.7
2019-Oct-12 18:01N 36°55' W 008°36'2 4.8
2019-Oct-12 17:30N 36°55' W 008°39'2 4.2
2019-Oct-12 17:00N 36°57' W 008°39'2 3.8
2019-Oct-12 16:30N 36°59' W 008°39'2 4.4
2019-Oct-12 16:00N 37°01' W 008°39'3 5.9
2019-Oct-12 15:30N 37°04' W 008°39'2 3.9
2019-Oct-12 15:00N 37°04' W 008°37'3 5.1
2019-Oct-12 14:30N 37°05' W 008°34'2 3.8
2019-Oct-12 14:00N 37°05' W 008°36'3 6.2
2019-Oct-12 13:30N 37°02' W 008°36'3 5.9
2019-Oct-12 13:00N 36°59' W 008°36'2 4.4
2019-Oct-12 12:30N 36°58' W 008°34'1 2.9
2019-Oct-12 12:00N 36°60' W 008°33'2 4.0
2019-Oct-12 11:30N 37°02' W 008°33'3 5.6
2019-Oct-12 11:00N 37°05' W 008°33'3 5.0
2019-Oct-12 10:30N 37°04' W 008°30'3 6.7
2019-Oct-12 10:01N 37°01' W 008°30'2 4.9
2019-Oct-12 09:30N 36°58' W 008°30'2 4.8
2019-Oct-12 09:00N 36°56' W 008°30'2 3.3
2019-Oct-12 08:30N 36°54' W 008°29'4 7.1
2019-Oct-12 08:00N 36°51' W 008°30'2 3.9
2019-Oct-12 07:30N 36°50' W 008°28'1 1.7
2019-Oct-12 07:00N 36°50' W 008°27'2 4.8
2019-Oct-12 06:30N 36°53' W 008°27'2 3.6
2019-Oct-12 05:59N 36°55' W 008°27'1 3.1
2019-Oct-12 05:30N 36°56' W 008°27'3 6.5
2019-Oct-12 05:00N 36°59' W 008°27'2 3.0
2019-Oct-12 04:30N 37°01' W 008°27'2 3.9
2019-Oct-12 04:00N 37°03' W 008°27'3 5.7
2019-Oct-12 03:30N 37°02' W 008°23'3 5.1
2019-Oct-12 03:00N 36°59' W 008°23'2 4.4
2019-Oct-12 02:30N 36°57' W 008°23'2 4.0
2019-Oct-12 02:00N 36°55' W 008°24'3 6.4
2019-Oct-12 01:30N 36°52' W 008°24'2 3.1
2019-Oct-12 00:56N 36°50' W 008°24'3 2.6
2019-Oct-11 23:56N 36°50' W 008°20'3 4.4
2019-Oct-11 23:15N 36°53' W 008°20'1 4.0
2019-Oct-11 22:59N 36°55' W 008°20'2 4.4
2019-Oct-11 22:26N 36°57' W 008°20'3 4.5
2019-Oct-11 21:41N 37°00' W 008°20'0 2.1
2019-Oct-11 21:30N 37°01' W 008°20'3 4.8
2019-Oct-11 20:56N 37°01' W 008°17'2 5.2
2019-Oct-11 20:30N 37°01' W 008°14'1 2.1
2019-Oct-11 19:59N 37°01' W 008°13'2 4.3
2019-Oct-11 19:26N 36°58' W 008°14'3 6.0
2019-Oct-11 19:00N 36°58' W 008°17'2 3.3
2019-Oct-11 18:27N 36°56' W 008°17'2 3.9
2019-Oct-11 18:00N 36°55' W 008°17'3 5.7
2019-Oct-11 17:29N 36°52' W 008°17'2 3.4
2019-Oct-11 17:00N 36°50' W 008°17'1 1.4
2019-Oct-11 16:29N 36°49' W 008°17'3 6.7
2019-Oct-11 15:58N 36°52' W 008°15'1 1.1
2019-Oct-11 15:30N 36°53' W 008°15'3 5.7
2019-Oct-11 15:00N 36°55' W 008°14'0 0.9
2019-Oct-11 14:30N 36°55' W 008°14'0 0.3
2019-Oct-11 14:00N 36°55' W 008°14'3 6.4
2019-Oct-11 13:29N 36°52' W 008°14'2 3.8
2019-Oct-11 13:00N 36°50' W 008°14'1 1.8
2019-Oct-11 12:30N 36°49' W 008°14'2 4.6
2019-Oct-11 12:01N 36°49' W 008°11'1 2.9
2019-Oct-11 11:30N 36°51' W 008°11'2 3.4
2019-Oct-11 11:00N 36°52' W 008°11'2 4.1
2019-Oct-11 10:30N 36°54' W 008°11'3 5.6
2019-Oct-11 10:00N 36°57' W 008°10'1 2.1
2019-Oct-11 09:30N 36°58' W 008°10'3 5.0
2019-Oct-11 09:00N 37°01' W 008°10'3 5.6
2019-Oct-11 08:30N 36°60' W 008°07'2 3.6
2019-Oct-11 08:00N 36°58' W 008°07'1 2.8
2019-Oct-11 07:30N 36°57' W 008°07'3 6.2
2019-Oct-11 07:00N 36°54' W 008°07'2 3.5
2019-Oct-11 06:30N 36°52' W 008°07'0 0.6
2019-Oct-11 06:00N 36°52' W 008°07'2 3.5
2019-Oct-11 05:20N 36°49' W 008°07'1 2.1
2019-Oct-11 05:00N 36°50' W 008°06'2 3.6
2019-Oct-11 04:19N 36°51' W 008°04'2 4.0
2019-Oct-11 03:54N 36°52' W 008°04'1 2.3
2019-Oct-11 03:30N 36°53' W 008°04'4 4.7
2019-Oct-11 02:44N 36°57' W 008°04'2 7.1
2019-Oct-11 02:30N 36°58' W 008°04'2 3.6
2019-Oct-11 02:00N 36°58' W 008°02'4 2.6
2019-Oct-11 00:33N 36°54' W 008°00'1 1.4
2019-Oct-10 23:59N 36°54' W 008°01'3 2.8
2019-Oct-10 23:01N 36°51' W 008°01'0 4.8
2019-Oct-10 22:57N 36°51' W 008°00'5 0.2
2019-Oct-09 22:57N 36°55' W 008°00'6 4.5
2019-Oct-09 21:41N 36°56' W 008°07'1 4.3
2019-Oct-09 21:22N 36°56' W 008°09'2 4.4
2019-Oct-09 21:00N 36°57' W 008°11'2 4.5
2019-Oct-09 20:29N 36°58' W 008°14'2 4.4
2019-Oct-09 20:00N 36°58' W 008°16'2 4.4
2019-Oct-09 19:30N 36°59' W 008°19'2 4.6
2019-Oct-09 19:00N 37°01' W 008°21'2 4.4
2019-Oct-09 18:30N 37°02' W 008°24'2 4.4
2019-Oct-09 18:00N 37°03' W 008°26'2 4.3
2019-Oct-09 17:30N 37°03' W 008°29'0 0.6
2019-Oct-09 17:00N 37°03' W 008°29'1 2.9
2019-Oct-09 16:30N 37°04' W 008°30'2 3.1
2019-Oct-09 16:00N 37°06' W 008°31'0 0.3
2019-Oct-09 15:30N 37°06' W 008°31'1 2.9
2019-Oct-09 14:59N 37°05' W 008°30'1 1.8
2019-Oct-09 14:30N 37°04' W 008°29'2 3.5
2019-Oct-09 14:00N 37°04' W 008°32'2 4.0
2019-Oct-09 13:30N 37°04' W 008°34'2 4.7
2019-Oct-09 13:00N 37°03' W 008°37'1 1.8
2019-Oct-09 12:30N 37°04' W 008°36'2 3.9
2019-Oct-09 12:00N 37°05' W 008°34'1 2.3
2019-Oct-09 11:30N 37°04' W 008°35'3 6.3
2019-Oct-09 11:00N 37°02' W 008°38'3 6.1
2019-Oct-09 10:30N 37°02' W 008°42'3 5.8
2019-Oct-09 10:00N 37°01' W 008°45'3 5.6
2019-Oct-09 09:30N 37°00' W 008°49'3 6.0
2019-Oct-09 09:00N 36°59' W 008°52'4 6.9
2019-Oct-09 08:30N 36°58' W 008°57'4 7.3
2019-Oct-09 07:57N 36°59' W 009°01'16 7.6
2019-Oct-09 05:48N 37°16' W 009°01'3 8.8
2019-Oct-09 05:25N 37°19' W 009°01'18 8.3
2019-Oct-09 03:14N 37°37' W 008°59'2 7.9
2019-Oct-09 03:00N 37°39' W 008°59'4 8.1
2019-Oct-09 02:30N 37°43' W 008°58'4 8.3
2019-Oct-09 02:00N 37°47' W 008°57'4 8.1
2019-Oct-09 01:30N 37°51' W 008°57'4 8.0
2019-Oct-09 01:01N 37°55' W 008°57'4 8.0
2019-Oct-09 00:31N 37°59' W 008°56'4 8.1
2019-Oct-09 00:01N 38°03' W 008°56'4 8.1
2019-Oct-08 23:31N 38°07' W 008°55'4 8.1
2019-Oct-08 23:00N 38°11' W 008°54'4 8.0
2019-Oct-08 22:31N 38°15' W 008°53'3 6.6
2019-Oct-08 22:00N 38°18' W 008°52'1 1.7
2019-Oct-08 21:30N 38°18' W 008°51'4 7.0
2019-Oct-08 21:00N 38°19' W 008°55'4 7.7
2019-Oct-08 20:31N 38°21' W 008°59'4 7.5
2019-Oct-08 20:01N 38°24' W 009°03'3 6.1
2019-Oct-08 19:31N 38°25' W 009°06'0 1.0
2019-Oct-08 19:01N 38°26' W 009°06'2 3.9
2019-Oct-08 18:31N 38°24' W 009°07'0 0.3
2019-Oct-08 18:01N 38°24' W 009°07'2 3.0
2019-Oct-08 17:30N 38°26' W 009°06'0 0.5
2019-Oct-08 17:01N 38°25' W 009°07'2 3.9
2019-Oct-08 16:30N 38°24' W 009°07'1 2.2
2019-Oct-08 16:00N 38°22' W 009°08'0 0.5
2019-Oct-08 15:31N 38°23' W 009°08'0 0.6
2019-Oct-08 15:01N 38°23' W 009°07'1 2.6
2019-Oct-08 14:30N 38°24' W 009°07'1 2.8
2019-Oct-08 14:01N 38°26' W 009°07'0 0.4
2019-Oct-08 13:30N 38°26' W 009°06'0 0.9
2019-Oct-08 13:01N 38°26' W 009°06'0 0.8
2019-Oct-08 12:31N 38°25' W 009°06'0 0.6
2019-Oct-08 12:00N 38°26' W 009°05'1 2.3
2019-Oct-08 11:30N 38°25' W 009°07'1 1.6
2019-Oct-08 11:00N 38°26' W 009°06'1 1.5
2019-Oct-08 10:31N 38°25' W 009°07'1 1.9
2019-Oct-08 10:00N 38°25' W 009°06'1 2.4
2019-Oct-08 09:30N 38°24' W 009°05'3 7.0
2019-Oct-08 09:01N 38°21' W 009°03'4 7.7
2019-Oct-08 08:31N 38°17' W 009°02'4 7.7
2019-Oct-08 08:01N 38°13' W 009°01'4 7.6
2019-Oct-08 07:31N 38°10' W 008°60'4 7.5
2019-Oct-08 07:01N 38°06' W 008°59'4 7.4
2019-Oct-08 06:30N 38°02' W 008°57'4 7.4
2019-Oct-08 06:00N 37°59' W 008°56'2 4.1
2019-Oct-08 05:30N 37°57' W 008°55'0 0.1
2019-Oct-08 05:00N 37°57' W 008°55'0 0.3
2019-Oct-08 04:30N 37°57' W 008°55'0 0.1
2019-Oct-08 04:00N 37°57' W 008°55'0 0.1
2019-Oct-08 03:31N 37°57' W 008°55'0 0.3
2019-Oct-08 03:00N 37°57' W 008°55'0 0.3
2019-Oct-08 02:31N 37°57' W 008°55'0 0.1
2019-Oct-08 02:01N 37°57' W 008°55'0 0.3
2019-Oct-08 01:31N 37°57' W 008°55'2 4.6
2019-Oct-08 01:01N 37°59' W 008°54'3 6.3
2019-Oct-08 00:31N 38°02' W 008°52'2 3.3
2019-Oct-08 00:00N 38°03' W 008°52'4 7.8
2019-Oct-07 23:30N 38°07' W 008°50'2 3.6
2019-Oct-07 23:00N 38°09' W 008°50'4 7.8
2019-Oct-07 22:31N 38°13' W 008°49'1 1.2
2019-Oct-07 22:00N 38°13' W 008°49'4 7.6
2019-Oct-07 21:31N 38°14' W 008°54'4 7.9
2019-Oct-07 21:01N 38°16' W 008°58'4 7.8
2019-Oct-07 20:31N 38°18' W 009°03'4 7.7
2019-Oct-07 20:01N 38°20' W 009°07'4 7.7
2019-Oct-07 19:31N 38°21' W 009°11'4 7.7
2019-Oct-07 19:01N 38°23' W 009°16'4 7.6
2019-Oct-07 18:30N 38°27' W 009°18'4 8.0
2019-Oct-07 18:01N 38°31' W 009°20'4 8.1
2019-Oct-07 17:31N 38°34' W 009°21'4 7.6
2019-Oct-07 17:01N 38°38' W 009°21'4 8.9
2019-Oct-07 16:30N 38°41' W 009°17'5 9.3
2019-Oct-07 16:00N 38°42' W 009°11'2 4.3
2019-Oct-07 15:30N 38°40' W 009°08'0 0.7
2019-Oct-07 14:55N 38°40' W 009°09'0 0.0
2019-Oct-07 14:25N 38°40' W 009°09'0 0.0
2019-Oct-07 13:58N 38°40' W 009°09'0 0.0
2019-Oct-07 13:28N 38°40' W 009°09'0 0.0
2019-Oct-07 12:58N 38°40' W 009°09'  
Track history (hours):
 
Tides and Currents Weather Stations Pressure Air Temp Water Temp Dewpoint Dewpoint Depression Visibility Wind Speed Wind Dir Waves Ship Positions

Oceanographic research ship Almirante Gago Coutinho (Portugal)

Detailed information on ship capabilities available from University of Delaware's Ocean Information Center.

Last reported at 2019-Oct-14 10:01 UTC. Time now 2019-Oct-14 10:21 UTC.
Position N 37°07' W 008°32'.

Length 69 m; draft 5 m.

Type: Military. MMSI: 263145000.

Date/timePositionNaut miles runAvg speedWind from/ knotsBaromVisibWave heightAir tempDewpointWater temp
2019-Oct-14 10:01N 37°07' W 008°32'0 0.0
2019-Oct-14 09:31N 37°07' W 008°32'0 0.0
2019-Oct-14 09:01N 37°07' W 008°32'0 0.0
2019-Oct-14 08:30N 37°07' W 008°32'0 0.0
2019-Oct-14 08:00N 37°07' W 008°32'0 0.0
2019-Oct-14 07:31N 37°07' W 008°32'2 3.0
2019-Oct-14 07:00N 37°06' W 008°32'3 6.5
2019-Oct-14 06:31N 37°03' W 008°33'1 2.3
2019-Oct-14 06:00N 37°02' W 008°33'1 2.5
2019-Oct-14 05:31N 37°00' W 008°33'1 1.6
2019-Oct-14 05:00N 37°00' W 008°34'1 1.5
2019-Oct-14 04:30N 37°00' W 008°35'2 3.5
2019-Oct-14 04:00N 37°00' W 008°33'2 3.7
2019-Oct-14 03:29N 37°02' W 008°33'1 2.5
2019-Oct-14 03:01N 37°03' W 008°34'2 4.1
2019-Oct-14 02:30N 37°02' W 008°36'2 3.9
2019-Oct-14 02:00N 37°02' W 008°38'2 3.8
2019-Oct-14 01:30N 37°01' W 008°40'2 3.7
2019-Oct-14 01:00N 37°00' W 008°43'2 3.9
2019-Oct-14 00:31N 36°60' W 008°45'2 4.2
2019-Oct-14 00:01N 36°59' W 008°47'2 3.8
2019-Oct-13 23:30N 36°58' W 008°50'2 3.7
2019-Oct-13 23:00N 36°57' W 008°52'2 3.7
2019-Oct-13 22:30N 36°57' W 008°54'2 3.7
2019-Oct-13 22:01N 36°56' W 008°56'1 2.0
2019-Oct-13 21:30N 36°56' W 008°57'3 5.9
2019-Oct-13 20:58N 36°52' W 008°57'1 2.9
2019-Oct-13 20:29N 36°51' W 008°57'1 2.1
2019-Oct-13 19:56N 36°50' W 008°58'1 2.6
2019-Oct-13 19:21N 36°51' W 008°60'5 5.3
2019-Oct-13 18:22N 36°56' W 008°60'3 4.3
2019-Oct-13 17:40N 36°59' W 008°60'0 0.2
2019-Oct-13 17:30N 36°59' W 008°60'2 0.5
2019-Oct-13 13:58N 37°01' W 009°01'1 1.9
2019-Oct-13 13:21N 36°59' W 009°02'3 8.6
2019-Oct-13 13:00N 36°59' W 008°58'3 5.3
2019-Oct-13 12:23N 37°01' W 008°54'0 1.0
2019-Oct-13 12:00N 37°00' W 008°54'2 4.5
2019-Oct-13 11:30N 36°58' W 008°54'3 5.5
2019-Oct-13 10:57N 36°55' W 008°54'2 4.7
2019-Oct-13 10:30N 36°53' W 008°54'1 2.4
2019-Oct-13 09:59N 36°52' W 008°53'2 3.0
2019-Oct-13 09:24N 36°54' W 008°51'2 5.8
2019-Oct-13 09:00N 36°56' W 008°51'2 3.6
2019-Oct-13 08:28N 36°58' W 008°51'1 2.8
2019-Oct-13 08:00N 36°59' W 008°51'3 5.1
2019-Oct-13 07:30N 37°02' W 008°51'2 4.9
2019-Oct-13 07:00N 37°03' W 008°48'2 3.9
2019-Oct-13 06:30N 37°01' W 008°48'2 4.2
2019-Oct-13 06:00N 36°59' W 008°48'2 4.0
2019-Oct-13 05:30N 36°57' W 008°48'3 6.0
2019-Oct-13 05:01N 36°54' W 008°48'2 4.7
2019-Oct-13 04:31N 36°52' W 008°48'2 3.3
2019-Oct-13 04:01N 36°52' W 008°46'1 1.7
2019-Oct-13 03:31N 36°52' W 008°45'2 4.2
2019-Oct-13 03:00N 36°54' W 008°45'3 6.0
2019-Oct-13 02:30N 36°57' W 008°45'3 5.3
2019-Oct-13 02:00N 36°60' W 008°45'2 3.8
2019-Oct-13 01:30N 37°02' W 008°45'2 3.5
2019-Oct-13 01:00N 37°03' W 008°44'2 4.0
2019-Oct-13 00:30N 37°02' W 008°42'2 4.9
2019-Oct-13 00:00N 36°60' W 008°42'2 5.0
2019-Oct-12 23:30N 36°57' W 008°42'3 5.9
2019-Oct-12 23:00N 36°54' W 008°42'3 5.9
2019-Oct-12 22:30N 36°51' W 008°42'2 4.0
2019-Oct-12 22:00N 36°52' W 008°40'1 2.3
2019-Oct-12 21:30N 36°52' W 008°38'2 3.5
2019-Oct-12 21:00N 36°52' W 008°36'1 2.0
2019-Oct-12 20:30N 36°51' W 008°35'2 4.3
2019-Oct-12 20:00N 36°52' W 008°33'0 0.3
2019-Oct-12 19:30N 36°52' W 008°33'2 3.2
2019-Oct-12 19:00N 36°54' W 008°33'2 3.1
2019-Oct-12 18:30N 36°55' W 008°33'2 4.7
2019-Oct-12 18:01N 36°55' W 008°36'2 4.8
2019-Oct-12 17:30N 36°55' W 008°39'2 4.2
2019-Oct-12 17:00N 36°57' W 008°39'2 3.8
2019-Oct-12 16:30N 36°59' W 008°39'2 4.4
2019-Oct-12 16:00N 37°01' W 008°39'3 5.9
2019-Oct-12 15:30N 37°04' W 008°39'2 3.9
2019-Oct-12 15:00N 37°04' W 008°37'3 5.1
2019-Oct-12 14:30N 37°05' W 008°34'2 3.8
2019-Oct-12 14:00N 37°05' W 008°36'3 6.2
2019-Oct-12 13:30N 37°02' W 008°36'3 5.9
2019-Oct-12 13:00N 36°59' W 008°36'2 4.4
2019-Oct-12 12:30N 36°58' W 008°34'1 2.9
2019-Oct-12 12:00N 36°60' W 008°33'2 4.0
2019-Oct-12 11:30N 37°02' W 008°33'3 5.6
2019-Oct-12 11:00N 37°05' W 008°33'3 5.0
2019-Oct-12 10:30N 37°04' W 008°30'3 6.7
2019-Oct-12 10:01N 37°01' W 008°30'2 4.9
2019-Oct-12 09:30N 36°58' W 008°30'2 4.8
2019-Oct-12 09:00N 36°56' W 008°30'2 3.3
2019-Oct-12 08:30N 36°54' W 008°29'4 7.1
2019-Oct-12 08:00N 36°51' W 008°30'2 3.9
2019-Oct-12 07:30N 36°50' W 008°28'1 1.7
2019-Oct-12 07:00N 36°50' W 008°27'2 4.8
2019-Oct-12 06:30N 36°53' W 008°27'2 3.6
2019-Oct-12 05:59N 36°55' W 008°27'1 3.1
2019-Oct-12 05:30N 36°56' W 008°27'3 6.5
2019-Oct-12 05:00N 36°59' W 008°27'2 3.0
2019-Oct-12 04:30N 37°01' W 008°27'2 3.9
2019-Oct-12 04:00N 37°03' W 008°27'3 5.7
2019-Oct-12 03:30N 37°02' W 008°23'3 5.1
2019-Oct-12 03:00N 36°59' W 008°23'2 4.4
2019-Oct-12 02:30N 36°57' W 008°23'2 4.0
2019-Oct-12 02:00N 36°55' W 008°24'3 6.4
2019-Oct-12 01:30N 36°52' W 008°24'2 3.1
2019-Oct-12 00:56N 36°50' W 008°24'3 2.6
2019-Oct-11 23:56N 36°50' W 008°20'3 4.4
2019-Oct-11 23:15N 36°53' W 008°20'1 4.0
2019-Oct-11 22:59N 36°55' W 008°20'2 4.4
2019-Oct-11 22:26N 36°57' W 008°20'3 4.5
2019-Oct-11 21:41N 37°00' W 008°20'0 2.1
2019-Oct-11 21:30N 37°01' W 008°20'3 4.8
2019-Oct-11 20:56N 37°01' W 008°17'2 5.2
2019-Oct-11 20:30N 37°01' W 008°14'1 2.1
2019-Oct-11 19:59N 37°01' W 008°13'2 4.3
2019-Oct-11 19:26N 36°58' W 008°14'3 6.0
2019-Oct-11 19:00N 36°58' W 008°17'2 3.3
2019-Oct-11 18:27N 36°56' W 008°17'2 3.9
2019-Oct-11 18:00N 36°55' W 008°17'3 5.7
2019-Oct-11 17:29N 36°52' W 008°17'2 3.4
2019-Oct-11 17:00N 36°50' W 008°17'1 1.4
2019-Oct-11 16:29N 36°49' W 008°17'3 6.7
2019-Oct-11 15:58N 36°52' W 008°15'1 1.1
2019-Oct-11 15:30N 36°53' W 008°15'3 5.7
2019-Oct-11 15:00N 36°55' W 008°14'0 0.9
2019-Oct-11 14:30N 36°55' W 008°14'0 0.3
2019-Oct-11 14:00N 36°55' W 008°14'3 6.4
2019-Oct-11 13:29N 36°52' W 008°14'2 3.8
2019-Oct-11 13:00N 36°50' W 008°14'1 1.8
2019-Oct-11 12:30N 36°49' W 008°14'2 4.6
2019-Oct-11 12:01N 36°49' W 008°11'1 2.9
2019-Oct-11 11:30N 36°51' W 008°11'2 3.4
2019-Oct-11 11:00N 36°52' W 008°11'2 4.1
2019-Oct-11 10:30N 36°54' W 008°11'3 5.6
2019-Oct-11 10:00N 36°57' W 008°10'1 2.1
2019-Oct-11 09:30N 36°58' W 008°10'3 5.0
2019-Oct-11 09:00N 37°01' W 008°10'3 5.6
2019-Oct-11 08:30N 36°60' W 008°07'2 3.6
2019-Oct-11 08:00N 36°58' W 008°07'1 2.8
2019-Oct-11 07:30N 36°57' W 008°07'3 6.2
2019-Oct-11 07:00N 36°54' W 008°07'2 3.5
2019-Oct-11 06:30N 36°52' W 008°07'0 0.6
2019-Oct-11 06:00N 36°52' W 008°07'2 3.5
2019-Oct-11 05:20N 36°49' W 008°07'1 2.1
2019-Oct-11 05:00N 36°50' W 008°06'2 3.6
2019-Oct-11 04:19N 36°51' W 008°04'2 4.0
2019-Oct-11 03:54N 36°52' W 008°04'1 2.3
2019-Oct-11 03:30N 36°53' W 008°04'4 4.7
2019-Oct-11 02:44N 36°57' W 008°04'2 7.1
2019-Oct-11 02:30N 36°58' W 008°04'2 3.6
2019-Oct-11 02:00N 36°58' W 008°02'4 2.6
2019-Oct-11 00:33N 36°54' W 008°00'1 1.4
2019-Oct-10 23:59N 36°54' W 008°01'3 2.8
2019-Oct-10 23:01N 36°51' W 008°01'0 4.8
2019-Oct-10 22:57N 36°51' W 008°00'5 0.2
2019-Oct-09 22:57N 36°55' W 008°00'6 4.5
2019-Oct-09 21:41N 36°56' W 008°07'1 4.3
2019-Oct-09 21:22N 36°56' W 008°09'2 4.4
2019-Oct-09 21:00N 36°57' W 008°11'2 4.5
2019-Oct-09 20:29N 36°58' W 008°14'2 4.4
2019-Oct-09 20:00N 36°58' W 008°16'2 4.4
2019-Oct-09 19:30N 36°59' W 008°19'2 4.6
2019-Oct-09 19:00N 37°01' W 008°21'2 4.4
2019-Oct-09 18:30N 37°02' W 008°24'2 4.4
2019-Oct-09 18:00N 37°03' W 008°26'2 4.3
2019-Oct-09 17:30N 37°03' W 008°29'0 0.6
2019-Oct-09 17:00N 37°03' W 008°29'1 2.9
2019-Oct-09 16:30N 37°04' W 008°30'2 3.1
2019-Oct-09 16:00N 37°06' W 008°31'0 0.3
2019-Oct-09 15:30N 37°06' W 008°31'1 2.9
2019-Oct-09 14:59N 37°05' W 008°30'1 1.8
2019-Oct-09 14:30N 37°04' W 008°29'2 3.5
2019-Oct-09 14:00N 37°04' W 008°32'2 4.0
2019-Oct-09 13:30N 37°04' W 008°34'2 4.7
2019-Oct-09 13:00N 37°03' W 008°37'1 1.8
2019-Oct-09 12:30N 37°04' W 008°36'2 3.9
2019-Oct-09 12:00N 37°05' W 008°34'1 2.3
2019-Oct-09 11:30N 37°04' W 008°35'3 6.3
2019-Oct-09 11:00N 37°02' W 008°38'3 6.1
2019-Oct-09 10:30N 37°02' W 008°42'3 5.8
2019-Oct-09 10:00N 37°01' W 008°45'3 5.6
2019-Oct-09 09:30N 37°00' W 008°49'3 6.0
2019-Oct-09 09:00N 36°59' W 008°52'4 6.9
2019-Oct-09 08:30N 36°58' W 008°57'4 7.3
2019-Oct-09 07:57N 36°59' W 009°01'16 7.6
2019-Oct-09 05:48N 37°16' W 009°01'3 8.8
2019-Oct-09 05:25N 37°19' W 009°01'18 8.3
2019-Oct-09 03:14N 37°37' W 008°59'2 7.9
2019-Oct-09 03:00N 37°39' W 008°59'4 8.1
2019-Oct-09 02:30N 37°43' W 008°58'4 8.3
2019-Oct-09 02:00N 37°47' W 008°57'4 8.1
2019-Oct-09 01:30N 37°51' W 008°57'4 8.0
2019-Oct-09 01:01N 37°55' W 008°57'4 8.0
2019-Oct-09 00:31N 37°59' W 008°56'4 8.1
2019-Oct-09 00:01N 38°03' W 008°56'4 8.1
2019-Oct-08 23:31N 38°07' W 008°55'4 8.1
2019-Oct-08 23:00N 38°11' W 008°54'4 8.0
2019-Oct-08 22:31N 38°15' W 008°53'3 6.6
2019-Oct-08 22:00N 38°18' W 008°52'1 1.7
2019-Oct-08 21:30N 38°18' W 008°51'4 7.0
2019-Oct-08 21:00N 38°19' W 008°55'4 7.7
2019-Oct-08 20:31N 38°21' W 008°59'4 7.5
2019-Oct-08 20:01N 38°24' W 009°03'3 6.1
2019-Oct-08 19:31N 38°25' W 009°06'0 1.0
2019-Oct-08 19:01N 38°26' W 009°06'2 3.9
2019-Oct-08 18:31N 38°24' W 009°07'0 0.3
2019-Oct-08 18:01N 38°24' W 009°07'2 3.0
2019-Oct-08 17:30N 38°26' W 009°06'0 0.5
2019-Oct-08 17:01N 38°25' W 009°07'2 3.9
2019-Oct-08 16:30N 38°24' W 009°07'1 2.2
2019-Oct-08 16:00N 38°22' W 009°08'0 0.5
2019-Oct-08 15:31N 38°23' W 009°08'0 0.6
2019-Oct-08 15:01N 38°23' W 009°07'1 2.6
2019-Oct-08 14:30N 38°24' W 009°07'1 2.8
2019-Oct-08 14:01N 38°26' W 009°07'0 0.4
2019-Oct-08 13:30N 38°26' W 009°06'0 0.9
2019-Oct-08 13:01N 38°26' W 009°06'0 0.8
2019-Oct-08 12:31N 38°25' W 009°06'0 0.6
2019-Oct-08 12:00N 38°26' W 009°05'1 2.3
2019-Oct-08 11:30N 38°25' W 009°07'1 1.6
2019-Oct-08 11:00N 38°26' W 009°06'1 1.5
2019-Oct-08 10:31N 38°25' W 009°07'1 1.9
2019-Oct-08 10:00N 38°25' W 009°06'1 2.4
2019-Oct-08 09:30N 38°24' W 009°05'3 7.0
2019-Oct-08 09:01N 38°21' W 009°03'4 7.7
2019-Oct-08 08:31N 38°17' W 009°02'4 7.7
2019-Oct-08 08:01N 38°13' W 009°01'4 7.6
2019-Oct-08 07:31N 38°10' W 008°60'4 7.5
2019-Oct-08 07:01N 38°06' W 008°59'4 7.4
2019-Oct-08 06:30N 38°02' W 008°57'4 7.4
2019-Oct-08 06:00N 37°59' W 008°56'2 4.1
2019-Oct-08 05:30N 37°57' W 008°55'0 0.1
2019-Oct-08 05:00N 37°57' W 008°55'0 0.3
2019-Oct-08 04:30N 37°57' W 008°55'0 0.1
2019-Oct-08 04:00N 37°57' W 008°55'0 0.1
2019-Oct-08 03:31N 37°57' W 008°55'0 0.3
2019-Oct-08 03:00N 37°57' W 008°55'0 0.3
2019-Oct-08 02:31N 37°57' W 008°55'0 0.1
2019-Oct-08 02:01N 37°57' W 008°55'0 0.3
2019-Oct-08 01:31N 37°57' W 008°55'2 4.6
2019-Oct-08 01:01N 37°59' W 008°54'3 6.3
2019-Oct-08 00:31N 38°02' W 008°52'2 3.3
2019-Oct-08 00:00N 38°03' W 008°52'4 7.8
2019-Oct-07 23:30N 38°07' W 008°50'2 3.6
2019-Oct-07 23:00N 38°09' W 008°50'4 7.8
2019-Oct-07 22:31N 38°13' W 008°49'1 1.2
2019-Oct-07 22:00N 38°13' W 008°49'4 7.6
2019-Oct-07 21:31N 38°14' W 008°54'4 7.9
2019-Oct-07 21:01N 38°16' W 008°58'4 7.8
2019-Oct-07 20:31N 38°18' W 009°03'4 7.7
2019-Oct-07 20:01N 38°20' W 009°07'4 7.7
2019-Oct-07 19:31N 38°21' W 009°11'4 7.7
2019-Oct-07 19:01N 38°23' W 009°16'4 7.6
2019-Oct-07 18:30N 38°27' W 009°18'4 8.0
2019-Oct-07 18:01N 38°31' W 009°20'4 8.1
2019-Oct-07 17:31N 38°34' W 009°21'4 7.6
2019-Oct-07 17:01N 38°38' W 009°21'4 8.9
2019-Oct-07 16:30N 38°41' W 009°17'5 9.3
2019-Oct-07 16:00N 38°42' W 009°11'2 4.3
2019-Oct-07 15:30N 38°40' W 009°08'0 0.7
2019-Oct-07 14:55N 38°40' W 009°09'0 0.0
2019-Oct-07 14:25N 38°40' W 009°09'0 0.0
2019-Oct-07 13:58N 38°40' W 009°09'0 0.0
2019-Oct-07 13:28N 38°40' W 009°09'0 0.0
2019-Oct-07 12:58N 38°40' W 009°09'  

Dump ship's entire track history